Time;durP1;ratioP1;P1;durP2;ratioP2;P2;SDS_P1;SDS_P2;PMS_P1;PMS_P2;Temp;Humidity;BMP_temperature;BMP_pressure;BME280_temperature;BME280_humidity;BME280_pressure;Samples;Min_cycle;Max_cycle;Signal;HPM_P1;HPM_P2
2020/12/09 00:01:52;;;;;;;3.67;2.50;;;;;;;;;;6304010;22;20003;-87
2020/12/09 00:04:18;;;;;;;3.60;2.67;;;;;;;;;;6303577;22;20420;-87
2020/12/09 00:06:45;;;;;;;2.95;2.28;;;;;;;;;;6305260;22;20450;-86
2020/12/09 00:09:13;;;;;;;5.00;2.92;;;;;;;;;;6306465;22;20053;-87
2020/12/09 00:11:40;;;;;;;3.42;2.15;;;;;;;;;;6304857;22;20462;-86
2020/12/09 00:14:06;;;;;;;2.97;2.40;;;;;;;;;;6305582;22;20132;-87
2020/12/09 00:16:32;;;;;;;2.47;2.28;;;;;;;;;;6305804;22;19995;-86
2020/12/09 00:18:59;;;;;;;3.05;2.40;;;;;;;;;;6304324;22;20010;-87
2020/12/09 00:21:25;;;;;;;3.63;2.88;;;;;;;;;;6305659;22;20045;-87
2020/12/09 00:23:52;;;;;;;4.25;2.70;;;;;;;;;;6305863;22;20010;-86
2020/12/09 00:26:22;;;;;;;3.85;2.75;;;;;;;;;;6304203;22;20006;-87
2020/12/09 00:28:49;;;;;;;3.13;2.40;;;;;;;;;;6305583;22;20022;-87
2020/12/09 00:31:16;;;;;;;7.60;2.80;;;;;;;;;;6305817;22;20070;-86
2020/12/09 00:33:42;;;;;;;2.10;1.88;;;;;;;;;;6303200;22;20015;-87
2020/12/09 00:36:08;;;;;;;4.22;2.50;;;;;;;;;;6304010;22;20009;-87
2020/12/09 00:38:34;;;;;;;3.35;2.58;;;;;;;;;;6303637;22;20014;-86
2020/12/09 00:41:00;;;;;;;2.40;2.22;;;;;;;;;;6304119;22;20203;-87
2020/12/09 00:43:26;;;;;;;4.32;2.80;;;;;;;;;;6305015;22;20012;-87
2020/12/09 00:45:52;;;;;;;3.22;2.83;;;;;;;;;;6304890;22;20007;-86
2020/12/09 00:48:19;;;;;;;2.65;2.03;;;;;;;;;;6303539;22;19995;-86
2020/12/09 00:50:45;;;;;;;2.35;1.95;;;;;;;;;;6304355;22;20275;-86
2020/12/09 00:53:11;;;;;;;3.00;2.60;;;;;;;;;;6305695;22;19999;-86
2020/12/09 00:55:37;;;;;;;3.13;2.13;;;;;;;;;;6306184;22;20513;-87
2020/12/09 00:58:03;;;;;;;3.72;2.72;;;;;;;;;;6307840;22;20442;-87
2020/12/09 01:00:29;;;;;;;2.83;2.53;;;;;;;;;;6305990;22;20381;-87
2020/12/09 01:02:55;;;;;;;2.97;2.67;;;;;;;;;;6307153;22;20007;-87
2020/12/09 01:05:21;;;;;;;4.53;4.00;;;;;;;;;;6305448;22;20027;-87
2020/12/09 01:07:47;;;;;;;4.50;3.00;;;;;;;;;;6305436;22;20023;-87
2020/12/09 01:10:13;;;;;;;2.10;1.90;;;;;;;;;;6305773;22;20037;-87
2020/12/09 01:12:40;;;;;;;2.45;1.92;;;;;;;;;;6307007;22;20034;-87
2020/12/09 01:15:06;;;;;;;1.70;1.60;;;;;;;;;;6307286;22;20434;-87
2020/12/09 01:17:33;;;;;;;2.92;2.60;;;;;;;;;;6307475;22;19987;-87
2020/12/09 01:19:59;;;;;;;5.00;2.92;;;;;;;;;;6307225;22;19999;-86
2020/12/09 01:22:25;;;;;;;2.42;2.22;;;;;;;;;;6305356;22;20386;-87
2020/12/09 01:24:51;;;;;;;3.17;2.53;;;;;;;;;;6306466;22;20426;-87
2020/12/09 01:27:22;;;;;;;3.38;2.85;;;;;;;;;;6305422;22;20055;-86
2020/12/09 01:29:48;;;;;;;2.92;2.65;;;;;;;;;;6306970;22;20000;-87
2020/12/09 01:32:14;;;;;;;3.22;2.40;;;;;;;;;;6305263;22;20015;-86
2020/12/09 01:34:40;;;;;;;3.92;3.42;;;;;;;;;;6305079;22;20034;-87
2020/12/09 01:37:06;;;;;;;2.88;2.50;;;;;;;;;;6307256;22;20106;-87
2020/12/09 01:39:32;;;;;;;2.97;2.78;;;;;;;;;;6307875;22;20004;-87
2020/12/09 01:41:58;;;;;;;4.47;2.90;;;;;;;;;;6306851;22;20039;-86
2020/12/09 01:44:24;;;;;;;5.05;2.75;;;;;;;;;;6305226;22;20004;-87
2020/12/09 01:46:52;;;;;;;2.28;2.10;;;;;;;;;;6307297;22;20002;-86
2020/12/09 01:49:18;;;;;;;2.65;2.45;;;;;;;;;;6306778;22;20022;-87
2020/12/09 01:51:44;;;;;;;3.15;2.85;;;;;;;;;;6306677;22;19999;-87
2020/12/09 01:54:10;;;;;;;2.65;2.15;;;;;;;;;;6304920;22;20316;-87
2020/12/09 01:56:36;;;;;;;3.25;2.50;;;;;;;;;;6307404;22;20057;-86
2020/12/09 01:59:02;;;;;;;3.08;2.78;;;;;;;;;;6306798;22;20486;-87
2020/12/09 02:01:30;;;;;;;3.40;2.50;;;;;;;;;;6305888;22;20027;-87
2020/12/09 02:03:56;;;;;;;2.45;2.30;;;;;;;;;;6304513;22;20009;-87
2020/12/09 02:06:23;;;;;;;3.38;2.65;;;;;;;;;;6304371;22;20039;-87
2020/12/09 02:08:49;;;;;;;3.13;2.30;;;;;;;;;;6306738;22;20121;-86
2020/12/09 02:11:15;;;;;;;4.60;2.20;;;;;;;;;;6304840;22;20132;-87
2020/12/09 02:13:46;;;;;;;2.75;2.08;;;;;;;;;;6304805;22;20003;-87
2020/12/09 02:16:17;;;;;;;2.45;2.25;;;;;;;;;;6305119;22;20040;-87
2020/12/09 02:18:44;;;;;;;2.63;2.42;;;;;;;;;;6307126;22;20070;-87
2020/12/09 02:21:10;;;;;;;3.42;2.30;;;;;;;;;;6305007;22;20033;-87
2020/12/09 02:23:36;;;;;;;2.78;1.95;;;;;;;;;;6306058;22;20007;-87
2020/12/09 02:26:03;;;;;;;2.90;2.35;;;;;;;;;;6305007;22;20377;-87
2020/12/09 02:28:29;;;;;;;2.03;1.58;;;;;;;;;;6304580;22;20004;-87
2020/12/09 02:30:55;;;;;;;2.72;2.40;;;;;;;;;;6305020;22;20003;-86
2020/12/09 02:33:21;;;;;;;2.55;1.75;;;;;;;;;;6305312;22;20015;-86
2020/12/09 02:35:47;;;;;;;2.40;1.85;;;;;;;;;;6306635;22;20007;-87
2020/12/09 02:38:13;;;;;;;2.20;1.63;;;;;;;;;;6304745;22;20354;-87
2020/12/09 02:40:40;;;;;;;2.00;1.58;;;;;;;;;;6304845;22;19999;-86
2020/12/09 02:43:06;;;;;;;3.05;2.67;;;;;;;;;;6305211;22;20078;-86
2020/12/09 02:45:32;;;;;;;2.55;2.17;;;;;;;;;;6304963;22;20081;-86
2020/12/09 02:47:58;;;;;;;2.30;1.50;;;;;;;;;;6306576;22;20000;-86
2020/12/09 02:50:24;;;;;;;3.20;2.55;;;;;;;;;;6306102;22;20028;-87
2020/12/09 02:52:50;;;;;;;3.47;2.13;;;;;;;;;;6304489;22;20359;-87
2020/12/09 02:55:18;;;;;;;2.47;1.90;;;;;;;;;;6306023;22;20427;-86
2020/12/09 02:57:44;;;;;;;1.90;1.80;;;;;;;;;;6304637;22;20003;-87
2020/12/09 03:00:10;;;;;;;1.48;1.38;;;;;;;;;;6306134;22;20504;-87
2020/12/09 03:02:36;;;;;;;1.75;1.50;;;;;;;;;;6306270;22;20003;-87
2020/12/09 03:05:03;;;;;;;2.10;1.67;;;;;;;;;;6305389;22;20355;-86
2020/12/09 03:07:29;;;;;;;2.50;2.30;;;;;;;;;;6303911;22;20014;-86
2020/12/09 03:09:55;;;;;;;1.92;1.15;;;;;;;;;;6306320;22;20093;-86
2020/12/09 03:12:21;;;;;;;1.70;1.30;;;;;;;;;;6304070;22;20018;-87
2020/12/09 03:14:47;;;;;;;1.92;1.50;;;;;;;;;;6304082;22;20010;-86
2020/12/09 03:17:13;;;;;;;1.23;1.05;;;;;;;;;;6303818;22;20007;-86
2020/12/09 03:19:39;;;;;;;1.33;1.17;;;;;;;;;;6305473;22;20057;-86
2020/12/09 03:22:05;;;;;;;3.20;2.33;;;;;;;;;;6305814;22;20006;-86
2020/12/09 03:24:31;;;;;;;1.35;1.08;;;;;;;;;;6303738;22;20500;-87
2020/12/09 03:26:57;;;;;;;1.77;1.67;;;;;;;;;;6306099;22;20427;-86
2020/12/09 03:29:23;;;;;;;1.33;1.27;;;;;;;;;;6304110;22;20004;-86
2020/12/09 03:31:49;;;;;;;1.42;1.33;;;;;;;;;;6304089;22;20003;-87
2020/12/09 03:34:15;;;;;;;1.00;0.95;;;;;;;;;;6303168;22;20011;-86
2020/12/09 03:36:42;;;;;;;1.40;1.27;;;;;;;;;;6306271;22;20003;-87
2020/12/09 03:39:08;;;;;;;1.48;1.33;;;;;;;;;;6305638;22;20023;-87
2020/12/09 03:41:34;;;;;;;1.20;0.90;;;;;;;;;;6304076;22;19999;-86
2020/12/09 03:44:00;;;;;;;1.98;1.55;;;;;;;;;;6305384;22;20007;-86
2020/12/09 03:46:26;;;;;;;1.30;0.70;;;;;;;;;;6306108;22;20621;-86
2020/12/09 03:48:52;;;;;;;2.50;2.10;;;;;;;;;;6305462;22;20010;-86
2020/12/09 03:51:19;;;;;;;1.15;1.05;;;;;;;;;;6303815;22;20054;-86
2020/12/09 03:53:45;;;;;;;3.60;1.55;;;;;;;;;;6303954;22;20393;-86
2020/12/09 03:56:11;;;;;;;1.48;1.00;;;;;;;;;;6303208;22;20409;-86
2020/12/09 03:58:37;;;;;;;1.75;1.35;;;;;;;;;;6303610;22;20039;-87
2020/12/09 04:01:03;;;;;;;0.93;0.93;;;;;;;;;;6304272;22;20431;-86
2020/12/09 04:03:29;;;;;;;1.10;0.88;;;;;;;;;;6304750;22;20026;-87
2020/12/09 04:05:55;;;;;;;1.33;0.80;;;;;;;;;;6303917;22;19995;-86
2020/12/09 04:08:21;;;;;;;1.30;1.20;;;;;;;;;;6305692;22;19999;-86
2020/12/09 04:10:47;;;;;;;1.08;0.90;;;;;;;;;;6305442;22;20373;-87
2020/12/09 04:13:13;;;;;;;2.10;1.42;;;;;;;;;;6305516;22;20364;-87
2020/12/09 04:15:40;;;;;;;0.60;0.60;;;;;;;;;;6306064;22;20011;-86
2020/12/09 04:18:06;;;;;;;2.42;1.13;;;;;;;;;;6303723;22;20011;-86
2020/12/09 04:20:33;;;;;;;1.48;0.90;;;;;;;;;;6304102;22;20027;-86
2020/12/09 04:22:59;;;;;;;1.67;1.20;;;;;;;;;;6305611;22;20338;-87
2020/12/09 04:25:25;;;;;;;1.10;0.77;;;;;;;;;;6303865;22;20003;-86
2020/12/09 04:27:51;;;;;;;2.05;0.75;;;;;;;;;;6303444;22;20113;-86
2020/12/09 04:30:17;;;;;;;0.90;0.90;;;;;;;;;;6303973;22;20030;-87
2020/12/09 04:32:43;;;;;;;1.80;1.25;;;;;;;;;;6303307;22;20068;-86
2020/12/09 04:35:09;;;;;;;1.17;0.95;;;;;;;;;;6304434;22;20002;-86
2020/12/09 04:37:35;;;;;;;2.33;1.40;;;;;;;;;;6305124;22;20081;-87
2020/12/09 04:40:01;;;;;;;0.85;0.85;;;;;;;;;;6303743;22;20398;-87
2020/12/09 04:42:27;;;;;;;0.75;0.75;;;;;;;;;;6305233;22;20114;-87
2020/12/09 04:44:54;;;;;;;1.05;0.98;;;;;;;;;;6305440;22;20342;-87
2020/12/09 04:47:25;;;;;;;1.10;1.05;;;;;;;;;;6304978;22;20003;-87
2020/12/09 04:49:55;;;;;;;1.25;1.05;;;;;;;;;;6304167;22;20401;-87
2020/12/09 04:52:26;;;;;;;0.90;0.90;;;;;;;;;;6303597;22;19999;-86
2020/12/09 04:54:58;;;;;;;2.47;1.13;;;;;;;;;;6305639;22;20003;-87
2020/12/09 04:57:43;;;;;;;2.28;1.00;;;;;;;;;;6303657;22;20045;-86
2020/12/09 05:00:13;;;;;;;0.90;0.90;;;;;;;;;;6304152;22;20007;-86
2020/12/09 05:02:44;;;;;;;0.90;0.80;;;;;;;;;;6304082;22;19999;-86
2020/12/09 05:05:11;;;;;;;1.38;1.20;;;;;;;;;;6304913;22;20092;-86
2020/12/09 05:07:38;;;;;;;1.40;0.95;;;;;;;;;;6303964;22;20021;-86
2020/12/09 05:10:05;;;;;;;1.17;1.08;;;;;;;;;;6303766;22;20073;-86
2020/12/09 05:12:40;;;;;;;0.77;0.77;;;;;;;;;;6305239;22;20003;-87
2020/12/09 05:15:06;;;;;;;1.20;1.10;;;;;;;;;;6303610;22;20462;-87
2020/12/09 05:17:34;;;;;;;0.40;0.40;;;;;;;;;;6303524;22;20208;-86
2020/12/09 05:20:04;;;;;;;0.70;0.70;;;;;;;;;;6305187;22;20030;-86
2020/12/09 05:22:31;;;;;;;0.73;0.60;;;;;;;;;;6304913;22;20014;-87
2020/12/09 05:24:57;;;;;;;0.60;0.60;;;;;;;;;;6305924;22;20466;-86
2020/12/09 05:27:23;;;;;;;1.55;1.13;;;;;;;;;;6304110;22;20419;-86
2020/12/09 05:29:50;;;;;;;0.98;0.98;;;;;;;;;;6304657;22;20015;-86
2020/12/09 05:32:16;;;;;;;2.08;0.70;;;;;;;;;;6306205;22;20438;-87
2020/12/09 05:34:43;;;;;;;0.60;0.60;;;;;;;;;;6303158;22;20006;-86
2020/12/09 05:37:10;;;;;;;0.60;0.60;;;;;;;;;;6305165;22;19996;-86
2020/12/09 05:39:48;;;;;;;1.38;0.75;;;;;;;;;;6303938;22;20010;-86
2020/12/09 05:42:15;;;;;;;0.82;0.82;;;;;;;;;;6305267;22;19999;-87
2020/12/09 05:44:42;;;;;;;1.38;0.55;;;;;;;;;;6305436;22;20351;-87
2020/12/09 05:47:08;;;;;;;1.60;0.73;;;;;;;;;;6307515;22;20066;-87
2020/12/09 05:49:36;;;;;;;0.55;0.55;;;;;;;;;;6305467;22;20038;-86
2020/12/09 05:52:03;;;;;;;0.85;0.60;;;;;;;;;;6307094;22;20003;-86
2020/12/09 05:54:29;;;;;;;0.35;0.35;;;;;;;;;;6305368;22;20014;-86
2020/12/09 05:56:56;;;;;;;0.60;0.60;;;;;;;;;;6306691;22;20493;-86
2020/12/09 05:59:35;;;;;;;0.77;0.77;;;;;;;;;;6306368;22;20052;-87
2020/12/09 06:02:08;;;;;;;1.38;1.15;;;;;;;;;;6305106;22;20087;-86
2020/12/09 06:04:44;;;;;;;0.70;0.70;;;;;;;;;;6305711;22;20000;-87
2020/12/09 06:07:11;;;;;;;0.85;0.70;;;;;;;;;;6305050;22;20011;-86
2020/12/09 06:09:38;;;;;;;1.80;1.42;;;;;;;;;;6306946;22;19999;-87
2020/12/09 06:12:04;;;;;;;0.85;0.57;;;;;;;;;;6307154;22;19988;-86
2020/12/09 06:14:30;;;;;;;1.45;0.80;;;;;;;;;;6304997;22;20011;-86
2020/12/09 06:16:56;;;;;;;0.70;0.60;;;;;;;;;;6304246;22;20011;-86
2020/12/09 06:19:23;;;;;;;0.80;0.80;;;;;;;;;;6306784;22;19999;-86
2020/12/09 06:21:56;;;;;;;1.10;0.68;;;;;;;;;;6306600;22;20031;-87
2020/12/09 06:24:23;;;;;;;0.77;0.77;;;;;;;;;;6306656;22;20000;-86
2020/12/09 06:26:49;;;;;;;1.35;0.93;;;;;;;;;;6306354;22;20030;-86
2020/12/09 06:29:21;;;;;;;1.27;1.17;;;;;;;;;;6304559;22;20390;-87
2020/12/09 06:31:58;;;;;;;5.25;1.50;;;;;;;;;;6306569;22;20486;-86
2020/12/09 06:34:24;;;;;;;0.75;0.70;;;;;;;;;;6303846;22;20011;-86
2020/12/09 06:37:17;;;;;;;1.75;0.70;;;;;;;;;;6304483;22;20339;-87
2020/12/09 06:40:03;;;;;;;1.50;1.40;;;;;;;;;;6298074;22;19999;-87
2020/12/09 06:42:29;;;;;;;0.68;0.68;;;;;;;;;;6304527;22;20397;-87
2020/12/09 06:44:56;;;;;;;3.13;0.80;;;;;;;;;;6306991;22;20003;-88
2020/12/09 06:47:22;;;;;;;0.57;0.57;;;;;;;;;;6304588;22;20011;-88
2020/12/09 06:49:49;;;;;;;1.88;1.60;;;;;;;;;;6304781;22;19999;-89
2020/12/09 06:52:15;;;;;;;1.83;1.30;;;;;;;;;;6306878;22;20014;-90
2020/12/09 06:54:43;;;;;;;1.98;1.13;;;;;;;;;;6307120;22;20010;-87
2020/12/09 06:57:28;;;;;;;1.58;1.48;;;;;;;;;;6306989;22;20007;-86
2020/12/09 07:00:18;;;;;;;1.98;1.20;;;;;;;;;;6308365;22;19999;-88
2020/12/09 07:02:46;;;;;;;0.80;0.70;;;;;;;;;;6282304;22;20025;-85
2020/12/09 07:05:19;;;;;;;1.27;1.10;;;;;;;;;;6307134;22;20064;-86
2020/12/09 07:07:49;;;;;;;1.13;1.02;;;;;;;;;;6307634;22;20030;-87
2020/12/09 07:10:18;;;;;;;1.67;1.27;;;;;;;;;;6305561;22;20304;-84
2020/12/09 07:12:47;;;;;;;1.63;0.85;;;;;;;;;;6305645;22;20038;-84
2020/12/09 07:15:13;;;;;;;1.38;1.27;;;;;;;;;;6307433;22;20004;-84
2020/12/09 07:17:39;;;;;;;0.85;0.80;;;;;;;;;;6308144;22;20010;-85
2020/12/09 07:20:06;;;;;;;0.82;0.82;;;;;;;;;;6307597;22;20003;-85
2020/12/09 07:22:32;;;;;;;0.90;0.70;;;;;;;;;;6305898;22;20052;-84
2020/12/09 07:24:58;;;;;;;1.40;1.23;;;;;;;;;;6305541;22;20010;-84
2020/12/09 07:27:26;;;;;;;0.93;0.90;;;;;;;;;;6305699;22;19996;-86
2020/12/09 07:29:56;;;;;;;0.80;0.80;;;;;;;;;;6305529;22;20000;-86
2020/12/09 07:32:23;;;;;;;2.40;0.98;;;;;;;;;;6303986;22;20046;-85
2020/12/09 07:34:58;;;;;;;3.08;1.25;;;;;;;;;;6303786;22;20054;-84
2020/12/09 07:37:25;;;;;;;1.52;0.88;;;;;;;;;;6307948;22;20308;-86
2020/12/09 07:39:53;;;;;;;0.88;0.70;;;;;;;;;;6306011;22;20113;-88
2020/12/09 07:42:21;;;;;;;1.50;0.90;;;;;;;;;;6306854;22;20415;-87
2020/12/09 07:44:47;;;;;;;1.10;1.00;;;;;;;;;;6307417;22;20057;-84
2020/12/09 07:47:13;;;;;;;2.70;2.13;;;;;;;;;;6302555;22;20003;-84
2020/12/09 07:49:50;;;;;;;1.73;1.17;;;;;;;;;;6304508;22;20082;-86
2020/12/09 07:52:23;;;;;;;1.70;1.50;;;;;;;;;;6306842;22;20030;-86
2020/12/09 07:54:52;;;;;;;2.50;1.58;;;;;;;;;;6307933;22;19999;-89
2020/12/09 07:57:18;;;;;;;3.15;2.03;;;;;;;;;;6307601;22;20038;-90
2020/12/09 07:59:44;;;;;;;7.55;1.50;;;;;;;;;;6313847;22;20007;-88
2020/12/09 08:02:20;;;;;;;2.72;1.80;;;;;;;;;;6314081;22;19999;-90
2020/12/09 08:04:47;;;;;;;2.50;1.63;;;;;;;;;;6320761;22;20002;-89
2020/12/09 08:07:19;;;;;;;3.78;1.85;;;;;;;;;;6308574;22;20380;-89
2020/12/09 08:10:04;;;;;;;2.83;1.45;;;;;;;;;;6308957;22;20004;-89
2020/12/09 08:12:30;;;;;;;1.33;1.23;;;;;;;;;;6311592;22;20006;-93
2020/12/09 08:14:58;;;;;;;1.60;1.30;;;;;;;;;;6310833;22;20335;-92
2020/12/09 08:17:28;;;;;;;3.35;2.10;;;;;;;;;;6285542;22;20007;-93
2020/12/09 08:20:01;;;;;;;1.13;1.05;;;;;;;;;;6315287;22;20007;-93
2020/12/09 08:22:28;;;;;;;1.67;0.93;;;;;;;;;;6310556;22;20084;-93
2020/12/09 08:25:01;;;;;;;1.77;1.33;;;;;;;;;;6306195;22;20026;-93
2020/12/09 08:27:27;;;;;;;2.20;1.80;;;;;;;;;;6307745;22;20019;-94
2020/12/09 08:29:53;;;;;;;2.78;1.60;;;;;;;;;;6308318;22;20004;-90
2020/12/09 08:32:21;;;;;;;3.45;2.03;;;;;;;;;;6312346;22;20144;-93
2020/12/09 08:35:07;;;;;;;2.17;1.98;;;;;;;;;;6319055;22;20011;-92
2020/12/09 08:37:33;;;;;;;2.40;1.90;;;;;;;;;;6317399;22;20391;-93
2020/12/09 08:39:59;;;;;;;3.13;2.10;;;;;;;;;;6319874;22;20003;-92
2020/12/09 08:42:25;;;;;;;3.03;2.63;;;;;;;;;;6319108;22;20037;-88
2020/12/09 08:44:51;;;;;;;3.83;2.90;;;;;;;;;;6316110;22;20003;-88
2020/12/09 08:47:17;;;;;;;1.92;1.80;;;;;;;;;;6314755;22;20058;-86
2020/12/09 08:49:44;;;;;;;2.55;2.13;;;;;;;;;;6312153;22;20022;-88
2020/12/09 08:52:10;;;;;;;3.00;1.67;;;;;;;;;;6313621;22;20007;-89
2020/12/09 08:54:36;;;;;;;3.20;2.38;;;;;;;;;;6315666;22;20030;-87
2020/12/09 08:57:02;;;;;;;5.20;2.63;;;;;;;;;;6314436;22;19999;-90
2020/12/09 08:59:28;;;;;;;3.10;2.80;;;;;;;;;;6318307;22;20071;-93
2020/12/09 09:01:54;;;;;;;6.32;3.20;;;;;;;;;;6316127;22;20000;-90
2020/12/09 09:04:21;;;;;;;3.28;2.28;;;;;;;;;;6316093;22;20018;-88
2020/12/09 09:06:47;;;;;;;2.85;2.13;;;;;;;;;;6314388;22;20007;-86
2020/12/09 09:09:13;;;;;;;2.95;2.30;;;;;;;;;;6314255;22;19996;-87
2020/12/09 09:11:39;;;;;;;2.17;1.70;;;;;;;;;;6314010;22;20007;-89
2020/12/09 09:14:06;;;;;;;2.25;2.15;;;;;;;;;;6315124;22;20003;-88
2020/12/09 09:16:32;;;;;;;3.42;2.78;;;;;;;;;;6312793;22;20003;-89
2020/12/09 09:18:58;;;;;;;4.93;2.30;;;;;;;;;;6318038;22;20426;-89
2020/12/09 09:21:24;;;;;;;8.77;2.92;;;;;;;;;;6320436;22;20453;-90
2020/12/09 09:23:50;;;;;;;6.07;2.92;;;;;;;;;;6319669;22;20010;-91
2020/12/09 09:26:16;;;;;;;2.53;2.08;;;;;;;;;;6317149;22;19995;-88
2020/12/09 09:28:42;;;;;;;3.25;2.65;;;;;;;;;;6317114;22;20426;-89
2020/12/09 09:31:08;;;;;;;5.15;3.65;;;;;;;;;;6317032;22;20010;-89
2020/12/09 09:33:34;;;;;;;5.05;3.10;;;;;;;;;;6317745;22;20406;-92
2020/12/09 09:36:01;;;;;;;5.20;4.35;;;;;;;;;;6318244;22;20000;-91
2020/12/09 09:38:27;;;;;;;6.25;3.65;;;;;;;;;;6316432;22;20018;-93
2020/12/09 09:40:53;;;;;;;6.47;4.10;;;;;;;;;;6318590;22;19999;-90
2020/12/09 09:43:19;;;;;;;4.43;2.53;;;;;;;;;;6318907;22;20017;-91
2020/12/09 09:45:45;;;;;;;7.38;3.97;;;;;;;;;;6319634;22;20017;-90
2020/12/09 09:48:11;;;;;;;7.40;3.63;;;;;;;;;;6319691;22;20347;-91
2020/12/09 09:50:37;;;;;;;5.55;3.17;;;;;;;;;;6319233;22;20018;-93
2020/12/09 09:53:03;;;;;;;4.47;3.45;;;;;;;;;;6318994;22;19999;-91
2020/12/09 09:55:29;;;;;;;5.05;3.53;;;;;;;;;;6318437;22;20007;-92
2020/12/09 09:57:55;;;;;;;4.10;3.53;;;;;;;;;;6319947;22;20031;-90
2020/12/09 10:00:21;;;;;;;4.80;4.05;;;;;;;;;;6318618;22;20010;-92
2020/12/09 10:02:47;;;;;;;4.75;4.18;;;;;;;;;;6317520;22;20003;-90
2020/12/09 10:05:13;;;;;;;3.30;2.97;;;;;;;;;;6319331;22;20003;-92
2020/12/09 10:07:40;;;;;;;3.72;3.08;;;;;;;;;;6317114;22;20319;-88
2020/12/09 10:10:09;;;;;;;6.93;4.60;;;;;;;;;;6317044;22;20007;-87
2020/12/09 10:12:35;;;;;;;3.15;2.88;;;;;;;;;;6319581;22;20003;-88
2020/12/09 10:15:01;;;;;;;5.10;2.78;;;;;;;;;;6321838;22;20003;-89
2020/12/09 10:17:27;;;;;;;4.88;3.88;;;;;;;;;;6318554;22;19995;-88
2020/12/09 10:19:54;;;;;;;7.63;3.38;;;;;;;;;;6315687;22;20003;-87
2020/12/09 10:22:20;;;;;;;3.53;2.85;;;;;;;;;;6309218;22;20031;-89
2020/12/09 10:24:46;;;;;;;4.72;3.05;;;;;;;;;;6307224;22;19991;-88
2020/12/09 10:27:12;;;;;;;4.53;3.05;;;;;;;;;;6300719;22;20006;-89
2020/12/09 10:29:38;;;;;;;2.40;2.25;;;;;;;;;;6302814;22;20454;-89
2020/12/09 10:32:04;;;;;;;3.78;2.55;;;;;;;;;;6304671;22;20473;-91
2020/12/09 10:34:30;;;;;;;3.20;2.55;;;;;;;;;;6307282;22;20080;-92
2020/12/09 10:36:56;;;;;;;2.83;2.22;;;;;;;;;;6308558;22;20142;-93
2020/12/09 10:39:23;;;;;;;2.30;1.90;;;;;;;;;;6314120;22;20032;-94
2020/12/09 10:41:50;;;;;;;3.63;1.88;;;;;;;;;;6313562;22;20442;-94
2020/12/09 10:44:16;;;;;;;2.05;1.85;;;;;;;;;;6308371;22;20010;-93
2020/12/09 10:46:45;;;;;;;5.53;1.80;;;;;;;;;;6313112;22;20031;-93
2020/12/09 10:49:12;;;;;;;2.05;1.45;;;;;;;;;;6308676;22;20439;-92
2020/12/09 10:51:51;;;;;;;3.42;1.50;;;;;;;;;;6307876;22;20007;-93
2020/12/09 10:54:18;;;;;;;1.60;1.50;;;;;;;;;;6306313;22;20013;-93
2020/12/09 10:56:44;;;;;;;6.28;2.65;;;;;;;;;;6308370;22;20009;-95
2020/12/09 10:59:10;;;;;;;2.72;1.90;;;;;;;;;;6311812;22;20007;-95
2020/12/09 11:01:36;;;;;;;2.05;1.63;;;;;;;;;;6310716;22;20017;-91
2020/12/09 11:04:13;;;;;;;6.70;2.97;;;;;;;;;;6324146;22;19983;-95
2020/12/09 11:06:42;;;;;;;2.42;1.92;;;;;;;;;;6313235;22;19999;-94
2020/12/09 11:09:08;;;;;;;2.67;1.85;;;;;;;;;;6310877;22;20003;-94
2020/12/09 11:11:35;;;;;;;2.58;1.50;;;;;;;;;;6311182;22;20064;-95
2020/12/09 11:16:34;;;;;;;2.28;1.23;;;;;;;;;;6165467;23;20035;-77
2020/12/09 11:19:00;;;;;;;2.85;2.00;;;;;;;;;;6169049;23;20009;-77
2020/12/09 11:21:26;;;;;;;2.08;1.42;;;;;;;;;;6162389;23;20001;-76
2020/12/09 11:23:53;;;;;;;2.80;2.40;;;;;;;;;;6169018;23;20044;-76
2020/12/09 11:26:20;;;;;;;2.20;1.38;;;;;;;;;;6164875;23;20079;-76
2020/12/09 11:28:46;;;;;;;2.00;1.30;;;;;;;;;;6167491;23;20005;-76
2020/12/09 11:31:12;;;;;;;2.47;1.80;;;;;;;;;;6162561;23;20036;-75
2020/12/09 11:33:38;;;;;;;1.90;0.75;;;;;;;;;;6166601;23;20055;-76
2020/12/09 11:36:05;;;;;;;2.15;1.40;;;;;;;;;;6165540;23;20032;-76
2020/12/09 11:38:31;;;;;;;3.33;1.40;;;;;;;;;;6166234;23;20016;-76
2020/12/09 11:40:58;;;;;;;2.17;1.80;;;;;;;;;;6168054;23;20002;-77
2020/12/09 11:43:25;;;;;;;2.67;1.10;;;;;;;;;;6167055;23;20020;-76
2020/12/09 11:45:52;;;;;;;2.55;2.03;;;;;;;;;;6166436;23;20931;-76
2020/12/09 11:48:18;;;;;;;2.75;1.80;;;;;;;;;;6165681;23;20015;-76
2020/12/09 11:50:44;;;;;;;1.15;1.05;;;;;;;;;;6168013;23;20005;-76
2020/12/09 11:53:10;;;;;;;1.15;0.98;;;;;;;;;;6167634;23;20016;-75
2020/12/09 11:55:36;;;;;;;4.03;1.30;;;;;;;;;;6165817;23;20001;-76
2020/12/09 11:58:03;;;;;;;1.33;1.08;;;;;;;;;;6167021;23;20047;-76
2020/12/09 12:00:29;;;;;;;2.97;1.13;;;;;;;;;;6166182;23;20005;-76
2020/12/09 12:02:56;;;;;;;1.92;1.70;;;;;;;;;;6167211;23;20012;-76
2020/12/09 12:05:24;;;;;;;2.35;1.05;;;;;;;;;;6167139;23;20001;-76
2020/12/09 12:07:50;;;;;;;2.58;1.55;;;;;;;;;;6166646;23;20301;-76
2020/12/09 12:10:16;;;;;;;1.77;1.00;;;;;;;;;;6167307;23;20108;-76
2020/12/09 12:12:42;;;;;;;2.25;1.58;;;;;;;;;;6168790;23;20433;-76
2020/12/09 12:15:08;;;;;;;1.40;0.88;;;;;;;;;;6167177;23;20021;-75
2020/12/09 12:17:34;;;;;;;1.83;1.00;;;;;;;;;;6163686;23;20442;-75
2020/12/09 12:20:00;;;;;;;0.88;0.80;;;;;;;;;;6168467;23;20055;-76
2020/12/09 12:22:27;;;;;;;1.02;0.93;;;;;;;;;;6166299;23;20095;-76
2020/12/09 12:24:53;;;;;;;1.13;0.95;;;;;;;;;;6168695;23;20001;-76
2020/12/09 12:27:19;;;;;;;1.15;0.82;;;;;;;;;;6161885;23;20461;-76
2020/12/09 12:29:45;;;;;;;1.30;1.20;;;;;;;;;;6167213;23;20089;-76
2020/12/09 12:32:11;;;;;;;1.05;1.05;;;;;;;;;;6167469;23;20105;-75
2020/12/09 12:34:37;;;;;;;2.90;0.80;;;;;;;;;;6165078;23;20009;-75
2020/12/09 12:37:05;;;;;;;0.75;0.75;;;;;;;;;;6158297;23;20028;-76
2020/12/09 12:39:31;;;;;;;1.30;1.00;;;;;;;;;;6166764;23;20062;-76
2020/12/09 12:41:57;;;;;;;5.45;0.82;;;;;;;;;;6167659;23;20033;-76
2020/12/09 12:44:23;;;;;;;0.95;0.68;;;;;;;;;;6166298;23;20009;-75
2020/12/09 12:46:49;;;;;;;0.77;0.70;;;;;;;;;;6163496;23;20032;-76
2020/12/09 12:49:16;;;;;;;3.50;1.10;;;;;;;;;;6167263;23;20041;-75
2020/12/09 12:51:42;;;;;;;0.85;0.85;;;;;;;;;;6168448;23;20005;-76
2020/12/09 12:54:08;;;;;;;0.93;0.75;;;;;;;;;;6168190;23;20008;-75
2020/12/09 12:56:34;;;;;;;1.17;0.75;;;;;;;;;;6164947;23;20061;-76
2020/12/09 12:59:00;;;;;;;1.02;0.77;;;;;;;;;;6168160;23;20009;-78
2020/12/09 13:01:27;;;;;;;0.95;0.70;;;;;;;;;;6168170;23;20019;-76
2020/12/09 13:03:53;;;;;;;3.85;1.45;;;;;;;;;;6167166;23;20009;-75
2020/12/09 13:06:20;;;;;;;1.65;0.73;;;;;;;;;;6163381;23;20013;-75
2020/12/09 13:08:46;;;;;;;1.40;1.00;;;;;;;;;;6158916;23;20005;-77
2020/12/09 13:11:12;;;;;;;1.52;0.55;;;;;;;;;;6168339;23;20032;-76
2020/12/09 13:13:38;;;;;;;0.82;0.60;;;;;;;;;;6169477;23;20512;-77
2020/12/09 13:16:06;;;;;;;1.02;0.93;;;;;;;;;;6165229;23;20025;-77
2020/12/09 13:18:32;;;;;;;1.15;1.05;;;;;;;;;;6166442;23;20001;-76
2020/12/09 13:20:58;;;;;;;1.35;0.93;;;;;;;;;;6167606;23;20347;-76
2020/12/09 13:23:24;;;;;;;1.33;0.88;;;;;;;;;;6166969;23;20113;-76
2020/12/09 13:25:50;;;;;;;1.05;1.05;;;;;;;;;;6166989;23;20023;-78
2020/12/09 13:28:17;;;;;;;0.60;0.52;;;;;;;;;;6165714;23;20475;-79
2020/12/09 13:30:43;;;;;;;3.08;1.20;;;;;;;;;;6170055;23;20819;-75
2020/12/09 13:33:12;;;;;;;1.10;0.80;;;;;;;;;;6159028;23;20009;-75
2020/12/09 13:35:39;;;;;;;3.10;1.27;;;;;;;;;;6166403;23;20677;-77
2020/12/09 13:38:05;;;;;;;2.95;1.08;;;;;;;;;;6166678;23;20005;-76
2020/12/09 13:40:31;;;;;;;1.42;0.90;;;;;;;;;;6169219;23;20026;-79
2020/12/09 13:42:57;;;;;;;1.25;0.90;;;;;;;;;;6167650;23;20100;-77
2020/12/09 13:45:24;;;;;;;3.55;0.88;;;;;;;;;;6168281;23;20021;-76
2020/12/09 13:47:50;;;;;;;1.73;1.08;;;;;;;;;;6167490;23;20009;-77
2020/12/09 13:50:16;;;;;;;3.92;1.63;;;;;;;;;;6169216;23;20016;-75
2020/12/09 13:52:42;;;;;;;1.30;0.93;;;;;;;;;;6169768;23;20005;-76
2020/12/09 13:55:08;;;;;;;1.65;1.02;;;;;;;;;;6169537;23;20005;-75
2020/12/09 13:57:35;;;;;;;2.45;1.00;;;;;;;;;;6168494;23;20001;-76
2020/12/09 14:00:01;;;;;;;1.75;1.20;;;;;;;;;;6169847;23;20009;-76
2020/12/09 14:02:27;;;;;;;2.33;1.02;;;;;;;;;;6168604;23;20017;-75
2020/12/09 14:04:53;;;;;;;1.48;1.20;;;;;;;;;;6168381;23;20005;-74
2020/12/09 14:07:19;;;;;;;2.13;1.90;;;;;;;;;;6162681;23;20733;-81
2020/12/09 14:09:45;;;;;;;1.27;1.17;;;;;;;;;;6168451;23;20109;-76
2020/12/09 14:12:11;;;;;;;2.17;1.35;;;;;;;;;;6166474;23;20109;-77
2020/12/09 14:14:37;;;;;;;1.48;1.35;;;;;;;;;;6166668;23;20014;-81
2020/12/09 14:17:05;;;;;;;0.98;0.82;;;;;;;;;;6164717;23;20040;-76
2020/12/09 14:19:34;;;;;;;1.70;1.05;;;;;;;;;;6166619;23;20084;-76
2020/12/09 14:22:01;;;;;;;1.63;1.25;;;;;;;;;;6168120;23;20001;-77
2020/12/09 14:24:29;;;;;;;3.80;1.20;;;;;;;;;;6167894;23;20452;-79
2020/12/09 14:26:55;;;;;;;2.20;1.02;;;;;;;;;;6164447;23;20470;-77
2020/12/09 14:29:21;;;;;;;2.35;1.10;;;;;;;;;;6165953;23;20337;-76
2020/12/09 14:31:51;;;;;;;2.22;1.10;;;;;;;;;;6168078;23;20012;-76
2020/12/09 14:34:17;;;;;;;2.80;1.80;;;;;;;;;;6164637;23;20017;-75
2020/12/09 14:36:50;;;;;;;2.00;1.70;;;;;;;;;;6163930;23;20016;-77
2020/12/09 14:39:16;;;;;;;7.45;2.67;;;;;;;;;;6167508;23;20108;-77
2020/12/09 14:41:52;;;;;;;1.90;1.60;;;;;;;;;;6167304;23;20018;-76
2020/12/09 14:44:20;;;;;;;3.00;1.92;;;;;;;;;;6141265;23;20059;-78
2020/12/09 14:46:46;;;;;;;2.20;2.00;;;;;;;;;;6164846;23;20028;-77